Time;durP1;ratioP1;P1;durP2;ratioP2;P2;SDS_P1;SDS_P2;PMS_P1;PMS_P2;Temp;Humidity;BMP_temperature;BMP_pressure;BME280_temperature;BME280_humidity;BME280_pressure;Samples;Min_cycle;Max_cycle;Signal;HPM_P1;HPM_P2
2022/06/15 00:01:15;;;;;;;6.03;2.13;;;;;;;20.04;42.09;101832.97;5098092;28;20075;-63
2022/06/15 00:03:45;;;;;;;6.35;1.90;;;;;;;20.03;41.98;101830.50;5104325;28;20036;-63
2022/06/15 00:06:16;;;;;;;3.53;1.88;;;;;;;19.98;42.04;101825.84;5100591;28;20056;-62
2022/06/15 00:08:45;;;;;;;4.68;2.05;;;;;;;19.97;42.23;101823.38;5102618;28;20048;-63
2022/06/15 00:11:17;;;;;;;6.78;1.80;;;;;;;19.96;42.40;101829.91;5095822;28;20063;-63
2022/06/15 00:13:46;;;;;;;4.10;1.67;;;;;;;19.93;42.48;101827.69;5093968;28;20103;-62
2022/06/15 00:16:14;;;;;;;6.68;1.98;;;;;;;19.93;42.30;101825.81;5104893;28;20135;-62
2022/06/15 00:18:45;;;;;;;4.05;1.70;;;;;;;19.91;42.51;101818.94;5100054;28;20154;-63
2022/06/15 00:21:15;;;;;;;6.60;1.88;;;;;;;19.91;42.46;101824.41;5103170;28;20047;-63
2022/06/15 00:23:43;;;;;;;4.95;1.90;;;;;;;19.90;42.17;101826.31;5104772;28;20119;-63
2022/06/15 00:26:11;;;;;;;5.63;2.40;;;;;;;19.88;42.33;101819.47;5103458;28;20516;-62
2022/06/15 00:28:38;;;;;;;6.50;2.05;;;;;;;19.86;42.50;101817.00;5107875;28;20499;-63
2022/06/15 00:31:07;;;;;;;6.13;1.90;;;;;;;19.83;42.49;101815.63;5099865;28;20071;-63
2022/06/15 00:33:36;;;;;;;3.10;1.55;;;;;;;19.82;42.61;101816.69;5102595;28;20083;-63
2022/06/15 00:36:08;;;;;;;6.18;1.73;;;;;;;19.82;42.49;101810.44;5103241;28;20069;-62
2022/06/15 00:38:39;;;;;;;7.85;2.17;;;;;;;19.80;42.65;101820.78;5106949;28;20452;-62
2022/06/15 00:41:09;;;;;;;6.07;1.73;;;;;;;19.77;42.68;101810.38;5093977;28;20071;-62
2022/06/15 00:43:40;;;;;;;5.88;1.90;;;;;;;19.76;42.71;101808.75;5097608;28;20112;-63
2022/06/15 00:46:16;;;;;;;7.05;1.90;;;;;;;19.75;42.93;101813.38;5104442;28;20073;-62
2022/06/15 00:48:47;;;;;;;3.72;1.73;;;;;;;19.74;42.69;101809.00;5093987;28;20135;-63
2022/06/15 00:51:17;;;;;;;3.95;1.88;;;;;;;19.69;42.74;101800.78;5104609;28;20048;-63
2022/06/15 00:53:45;;;;;;;2.95;1.52;;;;;;;19.69;42.94;101802.69;5103405;28;20052;-62
2022/06/15 00:56:14;;;;;;;4.38;1.77;;;;;;;19.70;42.84;101796.13;5101918;28;20076;-63
2022/06/15 00:58:47;;;;;;;4.68;1.65;;;;;;;19.66;42.97;101797.75;5104892;28;20094;-63
2022/06/15 01:01:15;;;;;;;5.32;1.65;;;;;;;19.67;42.87;101791.19;5101007;28;20055;-62
2022/06/15 01:03:43;;;;;;;6.00;1.92;;;;;;;19.64;43.11;101802.63;5100882;28;20047;-63
2022/06/15 01:06:22;;;;;;;4.22;1.65;;;;;;;19.55;43.12;101783.19;5103245;28;20171;-62
2022/06/15 01:08:58;;;;;;;4.40;1.60;;;;;;;19.60;43.05;101796.03;5103029;28;20401;-62
2022/06/15 01:11:43;;;;;;;3.28;2.00;;;;;;;19.58;43.26;101792.75;5096831;28;20071;-62
2022/06/15 01:14:28;;;;;;;4.35;1.98;;;;;;;19.55;43.40;101794.09;5102076;28;20754;-63
2022/06/15 01:17:07;;;;;;;3.08;1.63;;;;;;;19.52;43.26;101791.06;5101012;28;20044;-63
2022/06/15 01:20:06;;;;;;;5.65;1.65;;;;;;;19.52;43.28;101797.34;5092735;28;20074;-62
2022/06/15 01:22:57;;;;;;;5.07;2.03;;;;;;;19.49;43.47;101795.91;5102693;28;20044;-62
2022/06/15 01:25:44;;;;;;;5.90;2.08;;;;;;;19.47;43.52;101798.06;5107720;28;20047;-62
2022/06/15 01:28:34;;;;;;;;;;;;;;;19.47;43.53;101786.34;5095805;28;20048;-62
2022/06/15 01:31:13;;;;;;;5.25;1.90;;;;;;;19.46;43.43;101787.44;5096033;28;19960;-63
2022/06/15 01:33:51;;;;;;;6.43;1.88;;;;;;;19.39;43.57;101790.38;5097577;28;20075;-62
2022/06/15 01:36:25;;;;;;;4.28;1.63;;;;;;;19.41;43.87;101788.22;5102849;28;20076;-62
2022/06/15 01:39:00;;;;;;;4.22;1.63;;;;;;;19.40;43.68;101793.91;5098808;28;20047;-62
2022/06/15 01:41:34;;;;;;;3.70;1.85;;;;;;;19.37;43.70;101786.25;5095678;28;20090;-62
2022/06/15 01:44:08;;;;;;;6.63;1.80;;;;;;;19.36;43.66;101784.59;5102876;28;20076;-62
2022/06/15 01:46:41;;;;;;;7.38;1.83;;;;;;;19.33;43.68;101783.22;5101302;28;20033;-62
2022/06/15 01:49:15;;;;;;;5.93;1.75;;;;;;;19.32;44.03;101786.19;5098741;28;20101;-62
2022/06/15 01:51:45;;;;;;;3.97;1.67;;;;;;;19.30;43.87;101789.19;5101608;28;20040;-62
2022/06/15 01:54:25;;;;;;;4.15;1.60;;;;;;;19.28;44.12;101790.53;5098727;28;20044;-62
2022/06/15 01:56:57;;;;;;;3.13;1.60;;;;;;;19.24;44.00;101778.50;5098896;28;20044;-62
2022/06/15 01:59:34;;;;;;;7.38;2.03;;;;;;;19.23;44.23;101774.94;5102664;28;20079;-62
2022/06/15 02:02:10;;;;;;;6.47;2.20;;;;;;;19.21;44.22;101777.09;5097795;28;20047;-62
2022/06/15 02:04:45;;;;;;;3.65;1.88;;;;;;;19.22;44.01;101780.66;5103652;28;20069;-62
2022/06/15 02:07:24;;;;;;;8.93;2.10;;;;;;;19.19;44.01;101771.91;5100358;28;20048;-62
2022/06/15 02:09:57;;;;;;;4.35;1.70;;;;;;;19.18;43.92;101772.97;5101775;28;20078;-62
2022/06/15 02:12:34;;;;;;;5.28;1.98;;;;;;;19.17;44.11;101773.25;5101762;28;20102;-62
2022/06/15 02:15:05;;;;;;;4.10;1.85;;;;;;;19.14;44.11;101768.31;5100111;28;20167;-62
2022/06/15 02:17:39;;;;;;;5.03;2.20;;;;;;;19.14;44.26;101769.13;5093828;28;20344;-62
2022/06/15 02:20:12;;;;;;;5.57;1.90;;;;;;;19.12;44.28;101765.84;5095076;28;20047;-62
2022/06/15 02:22:40;;;;;;;4.45;1.70;;;;;;;19.13;44.29;101764.75;5104443;28;20152;-62
2022/06/15 02:25:12;;;;;;;3.97;1.65;;;;;;;19.11;44.25;101766.09;5106077;28;20044;-62
2022/06/15 02:27:42;;;;;;;4.50;1.83;;;;;;;19.09;44.20;101763.63;5098073;28;20078;-62
2022/06/15 02:30:15;;;;;;;6.72;2.10;;;;;;;19.06;44.38;101761.44;5103254;28;20052;-61
2022/06/15 02:32:47;;;;;;;5.20;1.60;;;;;;;19.06;44.37;101758.72;5099233;28;20052;-62
2022/06/15 02:35:15;;;;;;;5.07;1.80;;;;;;;19.04;44.47;101763.59;5101070;28;20095;-62
2022/06/15 02:37:43;;;;;;;6.72;2.10;;;;;;;19.01;44.60;101757.84;5098392;28;20063;-62
2022/06/15 02:40:14;;;;;;;6.40;2.15;;;;;;;18.94;44.29;101744.41;5098367;28;20040;-62
2022/06/15 02:42:41;;;;;;;5.00;2.20;;;;;;;18.98;44.76;101752.91;5094693;28;20071;-62
2022/06/15 02:45:14;;;;;;;6.45;1.73;;;;;;;18.96;44.70;101758.59;5103899;28;20119;-64
2022/06/15 02:47:43;;;;;;;7.30;2.55;;;;;;;18.95;44.82;101754.22;5092867;28;20043;-62
2022/06/15 02:50:16;;;;;;;5.25;2.00;;;;;;;18.93;44.63;101748.22;5099515;28;20512;-62
2022/06/15 02:52:48;;;;;;;6.35;1.90;;;;;;;18.90;45.02;101743.28;5097447;28;20064;-62
2022/06/15 02:55:18;;;;;;;8.48;2.47;;;;;;;18.89;44.98;101748.97;5099668;28;20079;-62
2022/06/15 02:57:48;;;;;;;6.72;2.22;;;;;;;18.81;45.11;101737.47;5101793;28;20117;-62
2022/06/15 03:00:18;;;;;;;5.90;2.28;;;;;;;18.84;45.12;101741.56;5099696;28;20064;-62
2022/06/15 03:02:46;;;;;;;7.18;2.28;;;;;;;18.82;45.29;101741.00;5104108;28;20083;-62
2022/06/15 03:05:15;;;;;;;4.93;2.00;;;;;;;18.80;45.06;101746.72;5098999;28;20101;-62
2022/06/15 03:07:43;;;;;;;5.20;1.95;;;;;;;18.78;45.24;101745.31;5102115;28;20071;-62
2022/06/15 03:10:11;;;;;;;4.38;1.80;;;;;;;18.68;45.04;101737.84;5097872;28;20079;-62
2022/06/15 03:12:39;;;;;;;3.80;1.60;;;;;;;18.75;45.19;101748.53;5102568;28;20044;-62
2022/06/15 03:15:07;;;;;;;6.50;1.83;;;;;;;18.74;45.32;101749.63;5101732;28;20067;-62
2022/06/15 03:17:35;;;;;;;11.73;1.92;;;;;;;18.71;45.39;101748.22;5095727;28;20272;-62
2022/06/15 03:20:03;;;;;;;4.22;1.85;;;;;;;18.69;45.34;101744.94;5099939;28;20082;-62
2022/06/15 03:22:34;;;;;;;5.75;2.22;;;;;;;18.65;45.30;101741.06;5099739;28;20082;-62
2022/06/15 03:25:02;;;;;;;4.30;1.70;;;;;;;18.67;45.30;101744.38;5101815;28;20080;-62
2022/06/15 03:27:30;;;;;;;5.30;1.92;;;;;;;18.64;45.34;101747.59;5099750;28;20071;-62
2022/06/15 03:29:58;;;;;;;2.78;1.70;;;;;;;18.63;45.49;101756.84;5098852;28;20283;-61
2022/06/15 03:32:25;;;;;;;6.72;2.15;;;;;;;18.62;45.41;101757.91;5099433;28;20173;-61
2022/06/15 03:34:53;;;;;;;3.75;1.80;;;;;;;18.62;45.60;101751.66;5102103;28;20076;-61
2022/06/15 03:37:21;;;;;;;9.15;1.90;;;;;;;18.59;45.58;101750.22;5096469;28;20055;-61
2022/06/15 03:39:52;;;;;;;7.70;2.17;;;;;;;18.57;45.60;101757.81;5093262;28;20067;-61
2022/06/15 03:42:22;;;;;;;6.32;2.80;;;;;;;18.56;45.51;101761.63;5097036;28;20390;-61
2022/06/15 03:44:50;;;;;;;5.70;2.20;;;;;;;18.53;45.82;101759.41;5101944;28;20064;-61
2022/06/15 03:47:18;;;;;;;5.85;2.60;;;;;;;18.53;45.72;101762.94;5099935;28;20048;-62
2022/06/15 03:49:48;;;;;;;4.13;2.15;;;;;;;18.47;45.75;101757.69;5101365;28;20121;-62
2022/06/15 03:52:16;;;;;;;4.57;2.03;;;;;;;18.51;45.76;101769.72;5098304;28;20036;-62
2022/06/15 03:54:44;;;;;;;7.10;2.30;;;;;;;18.48;45.81;101767.50;5102456;28;20070;-61
2022/06/15 03:57:15;;;;;;;6.18;2.38;;;;;;;18.49;45.87;101771.88;5097222;28;20512;-61
2022/06/15 03:59:44;;;;;;;3.60;1.75;;;;;;;18.48;45.78;101759.34;5101902;28;20050;-61
2022/06/15 04:02:11;;;;;;;3.80;1.67;;;;;;;18.42;45.63;101754.91;5100418;28;20393;-62
2022/06/15 04:04:39;;;;;;;5.70;1.90;;;;;;;18.45;45.71;101757.94;5094372;28;20103;-62
2022/06/15 04:08:34;;;;;;;3.88;2.03;;;;;;;18.44;45.71;101760.91;5100560;28;20059;-62
2022/06/15 04:09:55;;;;;;;6.85;2.33;;;;;;;18.27;45.83;101738.38;5099244;28;20286;-62
2022/06/15 04:12:25;;;;;;;8.77;2.10;;;;;;;18.40;45.83;101757.06;5101218;28;20076;-63
2022/06/15 04:14:52;;;;;;;8.32;2.42;;;;;;;18.40;45.97;101765.22;5103717;28;20084;-62
2022/06/15 04:17:20;;;;;;;4.82;1.83;;;;;;;18.38;45.95;101761.94;5100329;28;20664;-62
2022/06/15 04:20:31;;;;;;;5.55;2.40;;;;;;;18.37;45.81;101761.09;5099095;28;20051;-62
2022/06/15 04:22:36;;;;;;;4.60;1.83;;;;;;;18.36;45.88;101762.19;5099065;28;20044;-62
2022/06/15 04:25:04;;;;;;;4.72;1.90;;;;;;;18.35;46.06;101759.72;5104260;28;20071;-62
2022/06/15 04:27:36;;;;;;;5.40;1.95;;;;;;;18.32;46.04;101760.22;5099574;28;20763;-62
2022/06/15 04:30:05;;;;;;;4.82;2.30;;;;;;;18.28;45.83;101748.19;5099235;28;20055;-62
2022/06/15 04:32:33;;;;;;;6.63;2.22;;;;;;;18.32;46.16;101757.50;5099734;28;20051;-62
2022/06/15 04:35:01;;;;;;;9.57;2.42;;;;;;;18.29;46.12;101753.38;5092406;28;20091;-62
2022/06/15 04:37:29;;;;;;;7.55;2.65;;;;;;;18.29;46.10;101753.38;5094891;28;20105;-62
2022/06/15 04:39:57;;;;;;;4.68;2.20;;;;;;;18.29;45.99;101752.53;5094232;28;20413;-63
2022/06/15 04:42:25;;;;;;;5.63;2.33;;;;;;;18.26;46.20;101753.88;5096464;28;20080;-63
2022/06/15 04:44:55;;;;;;;5.00;1.95;;;;;;;18.23;46.17;101751.66;5100931;28;20081;-62
2022/06/15 04:47:22;;;;;;;5.00;2.13;;;;;;;18.23;46.16;101759.81;5094511;28;20080;-63
2022/06/15 04:49:50;;;;;;;7.15;2.38;;;;;;;18.23;46.15;101761.72;5093971;28;20058;-63
2022/06/15 04:52:18;;;;;;;4.28;2.13;;;;;;;18.24;46.13;101760.63;5094086;28;20045;-63
2022/06/15 04:54:45;;;;;;;9.07;2.67;;;;;;;18.24;46.11;101766.91;5102514;28;20067;-62
2022/06/15 04:57:13;;;;;;;7.53;2.75;;;;;;;18.24;46.16;101755.19;5096106;28;20153;-62
2022/06/15 04:59:42;;;;;;;6.85;2.50;;;;;;;18.26;46.05;101770.19;5100835;28;20044;-63
2022/06/15 05:02:12;;;;;;;3.78;1.90;;;;;;;18.26;45.94;101763.94;5097654;28;20082;-62
2022/06/15 05:04:41;;;;;;;7.00;2.65;;;;;;;18.26;45.96;101763.94;5100555;28;20062;-63
2022/06/15 05:07:09;;;;;;;5.65;2.30;;;;;;;18.28;45.95;101767.22;5102597;28;20044;-62
2022/06/15 05:09:38;;;;;;;4.88;2.20;;;;;;;18.29;46.09;101768.88;5103329;28;20112;-62
2022/06/15 05:12:06;;;;;;;7.57;2.45;;;;;;;18.30;45.90;101765.91;5108532;28;20043;-63
2022/06/15 05:14:34;;;;;;;9.55;2.53;;;;;;;18.32;45.92;101763.75;5100366;28;20077;-63
2022/06/15 05:17:01;;;;;;;6.07;1.85;;;;;;;18.33;45.86;101762.69;5094889;28;20527;-62
2022/06/15 05:19:31;;;;;;;6.13;2.15;;;;;;;18.34;45.77;101764.31;5103717;28;20057;-64
2022/06/15 05:21:58;;;;;;;5.32;2.17;;;;;;;18.36;45.93;101767.63;5101193;28;20071;-61
2022/06/15 05:24:26;;;;;;;6.35;1.80;;;;;;;18.38;45.83;101764.66;5101532;28;20040;-63
2022/06/15 05:26:54;;;;;;;6.47;1.90;;;;;;;18.37;46.13;101763.00;5101222;28;20055;-66
2022/06/15 05:29:22;;;;;;;7.68;2.53;;;;;;;18.43;46.11;101770.97;5102110;28;20453;-62
2022/06/15 05:31:50;;;;;;;4.93;2.05;;;;;;;18.47;45.95;101758.53;5106809;28;20063;-62
2022/06/15 05:34:18;;;;;;;5.80;2.42;;;;;;;18.50;45.88;101773.53;5103726;28;20121;-62
2022/06/15 05:36:47;;;;;;;4.85;2.40;;;;;;;18.52;45.87;101771.38;5102460;28;20047;-64
2022/06/15 05:39:15;;;;;;;4.97;2.10;;;;;;;18.53;46.04;101768.41;5099093;28;20055;-63
2022/06/15 05:41:43;;;;;;;7.45;2.30;;;;;;;18.56;46.15;101774.41;5106534;28;20493;-64
2022/06/15 05:44:12;;;;;;;5.85;2.20;;;;;;;18.57;46.12;101766.00;4745741;28;10000957;-63
2022/06/15 05:46:40;;;;;;;9.45;2.50;;;;;;;18.60;46.07;101775.56;5099380;28;20051;-66
2022/06/15 05:49:10;;;;;;;5.75;2.10;;;;;;;18.61;46.33;101774.50;5099130;28;20048;-66
2022/06/15 05:51:38;;;;;;;8.43;2.40;;;;;;;18.64;46.23;101777.56;5108635;28;20066;-65
2022/06/15 05:54:07;;;;;;;4.68;1.95;;;;;;;18.65;46.44;101779.19;5099988;28;20121;-64
2022/06/15 05:56:35;;;;;;;5.97;2.10;;;;;;;18.67;46.27;101771.59;5103938;28;20077;-65
2022/06/15 05:59:03;;;;;;;7.85;2.38;;;;;;;18.69;46.52;101777.63;5099444;28;20063;-64
2022/06/15 06:01:33;;;;;;;6.05;2.35;;;;;;;18.72;46.37;101779.00;5095136;28;20542;-65
2022/06/15 06:04:01;;;;;;;5.13;2.53;;;;;;;18.73;46.55;101776.03;5100800;28;20043;-65
2022/06/15 06:06:31;;;;;;;7.22;2.58;;;;;;;18.75;46.41;101776.59;5104541;28;20565;-64
2022/06/15 06:08:59;;;;;;;6.07;2.10;;;;;;;18.78;46.30;101780.72;5105050;28;20051;-64
2022/06/15 06:11:29;;;;;;;5.80;2.15;;;;;;;18.81;46.38;101780.22;5097343;28;20048;-62
2022/06/15 06:13:56;;;;;;;6.60;2.28;;;;;;;18.84;46.41;101769.63;5096922;28;20075;-64
2022/06/15 06:16:24;;;;;;;4.45;2.60;;;;;;;18.88;46.47;101774.56;5106104;28;20090;-63
2022/06/15 06:18:52;;;;;;;4.82;2.20;;;;;;;18.88;46.78;101769.94;5103357;28;20101;-63
2022/06/15 06:21:21;;;;;;;4.40;2.20;;;;;;;18.91;46.64;101771.34;5097751;28;20052;-63
2022/06/15 06:23:49;;;;;;;9.65;2.30;;;;;;;18.92;46.67;101771.09;5104297;28;20056;-63
2022/06/15 06:26:20;;;;;;;7.55;2.33;;;;;;;18.93;46.67;101763.75;5103248;28;20051;-64
2022/06/15 06:28:50;;;;;;;10.10;2.85;;;;;;;18.94;46.56;101765.38;5103510;28;20087;-63
2022/06/15 06:31:20;;;;;;;8.55;2.40;;;;;;;18.88;46.53;101750.88;5103438;28;20154;-64
2022/06/15 06:33:49;;;;;;;5.95;1.98;;;;;;;18.97;46.47;101762.16;5092386;28;20048;-63
2022/06/15 06:36:23;;;;;;;4.97;2.42;;;;;;;19.00;46.71;101772.53;5099870;28;20048;-64
2022/06/15 06:38:51;;;;;;;4.72;2.35;;;;;;;18.95;46.75;101767.03;5103951;28;20068;-63
2022/06/15 06:41:22;;;;;;;9.43;2.65;;;;;;;19.02;46.56;101776.66;5090459;28;20490;-63
2022/06/15 06:43:51;;;;;;;7.18;2.88;;;;;;;19.04;46.55;101773.66;5103199;28;20052;-63
2022/06/15 06:46:19;;;;;;;5.25;2.15;;;;;;;19.06;46.69;101777.78;5095535;28;20064;-63
2022/06/15 06:48:47;;;;;;;5.10;2.15;;;;;;;19.08;46.64;101777.50;5101878;28;20155;-63
2022/06/15 06:51:16;;;;;;;4.22;2.47;;;;;;;19.10;46.54;101778.88;5103335;28;20094;-62
2022/06/15 06:53:44;;;;;;;6.20;2.13;;;;;;;19.12;46.69;101781.34;5101448;28;20047;-63
2022/06/15 06:56:12;;;;;;;11.50;3.47;;;;;;;19.14;46.68;101776.47;5107799;28;20044;-63
2022/06/15 06:58:40;;;;;;;5.43;2.63;;;;;;;19.15;46.54;101784.41;5102646;28;20044;-63
2022/06/15 07:01:09;;;;;;;4.60;2.30;;;;;;;19.15;46.67;101789.03;5102887;28;20082;-64
2022/06/15 07:03:37;;;;;;;6.35;2.53;;;;;;;19.16;46.69;101786.03;5094924;28;20055;-64
2022/06/15 07:06:08;;;;;;;6.80;2.95;;;;;;;19.17;46.90;101786.88;5103064;28;20044;-64
2022/06/15 07:08:38;;;;;;;3.95;2.28;;;;;;;19.18;46.88;101786.59;5102616;28;20052;-63
2022/06/15 07:11:09;;;;;;;9.35;2.78;;;;;;;19.20;46.82;101786.34;5095708;28;20047;-63
2022/06/15 07:13:37;;;;;;;5.05;2.60;;;;;;;19.22;46.88;101786.09;5102575;28;20071;-63
2022/06/15 07:16:05;;;;;;;5.10;2.25;;;;;;;19.24;47.12;101786.66;5089779;28;20059;-63
2022/06/15 07:18:35;;;;;;;3.72;1.98;;;;;;;19.27;47.06;101795.16;5089266;28;20055;-64
2022/06/15 07:21:03;;;;;;;6.30;3.25;;;;;;;19.28;47.13;101790.53;5102768;28;20078;-65
2022/06/15 07:23:31;;;;;;;5.00;2.10;;;;;;;19.28;47.26;101783.16;5100736;28;20043;-64
2022/06/15 07:26:03;;;;;;;7.20;2.08;;;;;;;19.24;47.06;101773.84;5096702;28;20048;-63
2022/06/15 07:28:31;;;;;;;3.95;2.03;;;;;;;19.30;47.26;101788.34;5102496;28;20090;-64
2022/06/15 07:30:59;;;;;;;4.25;1.88;;;;;;;19.31;47.12;101790.84;5103497;28;20047;-63
2022/06/15 07:33:27;;;;;;;6.22;2.50;;;;;;;19.33;47.20;101779.66;5099691;28;20143;-63
2022/06/15 07:35:56;;;;;;;3.95;1.90;;;;;;;19.35;47.25;101783.78;5101663;28;20051;-63
2022/06/15 07:38:26;;;;;;;8.68;3.35;;;;;;;19.36;46.92;101784.59;5092810;28;20059;-63
2022/06/15 07:40:57;;;;;;;3.90;2.13;;;;;;;19.36;47.13;101788.16;5092367;28;20144;-66
2022/06/15 07:43:26;;;;;;;4.30;2.03;;;;;;;19.32;46.95;101786.19;5102266;28;20120;-63
2022/06/15 07:45:53;;;;;;;4.65;1.95;;;;;;;19.39;47.49;101792.28;5102593;28;20044;-63
2022/06/15 07:51:09;;;;;;;6.47;1.92;;;;;;;19.44;47.56;101792.31;5100673;28;20056;-63
2022/06/15 07:53:37;;;;;;;4.55;1.92;;;;;;;19.46;47.38;101795.63;5100086;28;20093;-63
2022/06/15 07:56:06;;;;;;;6.03;2.33;;;;;;;19.39;47.55;101781.38;5101737;28;20044;-63
2022/06/15 07:58:33;;;;;;;4.82;1.80;;;;;;;19.48;47.42;101794.28;5101944;28;20048;-64
2022/06/15 08:01:01;;;;;;;7.72;2.22;;;;;;;19.49;47.69;101803.28;5100241;28;20071;-63
2022/06/15 08:03:29;;;;;;;5.80;2.03;;;;;;;19.50;47.59;101794.00;5098642;28;20139;-63
2022/06/15 08:05:57;;;;;;;6.22;2.03;;;;;;;19.52;47.78;101800.06;5101979;28;20055;-63
2022/06/15 08:08:26;;;;;;;3.33;1.65;;;;;;;19.54;47.60;101797.06;5101790;28;20087;-63
2022/06/15 08:10:54;;;;;;;5.45;2.38;;;;;;;19.56;47.66;101801.19;5095984;28;20055;-63
2022/06/15 08:13:21;;;;;;;4.80;1.98;;;;;;;19.57;47.82;101797.38;5097540;28;20041;-63
2022/06/15 08:15:51;;;;;;;7.00;1.95;;;;;;;19.59;47.88;101797.94;5096218;28;20457;-63
2022/06/15 08:18:23;;;;;;;8.15;2.45;;;;;;;19.59;47.90;101800.69;5102028;28;20064;-63
2022/06/15 08:20:54;;;;;;;5.95;2.60;;;;;;;19.61;47.88;101798.50;5100742;28;20052;-63
2022/06/15 08:23:25;;;;;;;5.13;1.92;;;;;;;19.62;47.79;101797.44;5096467;28;20048;-63
2022/06/15 08:25:57;;;;;;;5.63;2.15;;;;;;;19.64;47.97;101795.28;5098321;28;20051;-63
2022/06/15 08:28:27;;;;;;;6.03;2.20;;;;;;;19.64;47.90;101800.72;5102044;28;20052;-64
2022/06/15 08:30:56;;;;;;;5.72;2.10;;;;;;;19.59;47.99;101780.75;5096287;28;20281;-64
2022/06/15 08:33:24;;;;;;;4.65;2.00;;;;;;;19.67;47.84;101805.66;5101956;28;20035;-64
2022/06/15 08:35:52;;;;;;;12.25;2.97;;;;;;;19.69;47.71;101799.94;5059818;28;20072;-63
2022/06/15 08:38:23;;;;;;;8.48;2.22;;;;;;;19.71;47.92;101804.06;5065965;28;20099;-64
2022/06/15 08:41:00;;;;;;;5.25;2.20;;;;;;;19.74;47.81;101795.34;5061799;28;20056;-64
2022/06/15 08:43:39;;;;;;;5.25;2.10;;;;;;;19.78;48.04;101795.66;5052707;28;20044;-64
2022/06/15 08:46:17;;;;;;;5.13;2.00;;;;;;;19.81;47.69;101797.88;5062301;28;20042;-64
2022/06/15 08:49:01;;;;;;;5.93;1.80;;;;;;;19.85;47.76;101795.44;5065357;28;20126;-64
2022/06/15 08:51:36;;;;;;;4.85;2.17;;;;;;;19.86;47.81;101788.91;5065009;28;20068;-64
2022/06/15 08:54:07;;;;;;;4.85;1.70;;;;;;;19.87;47.72;101785.09;5053306;28;20079;-64
2022/06/15 08:56:42;;;;;;;4.07;1.73;;;;;;;19.91;47.57;101795.22;5064908;28;20049;-64
2022/06/15 08:59:16;;;;;;;4.93;2.15;;;;;;;19.93;47.82;101787.59;5063847;28;20041;-64
2022/06/15 09:01:51;;;;;;;4.68;1.92;;;;;;;19.94;47.80;101794.69;5062658;28;20044;-64
2022/06/15 09:04:28;;;;;;;3.97;1.85;;;;;;;19.97;47.88;101783.25;5063614;28;20067;-64
2022/06/15 09:07:11;;;;;;;4.65;2.13;;;;;;;20.01;47.92;101781.66;5051889;28;20071;-64
2022/06/15 09:09:53;;;;;;;5.07;1.70;;;;;;;20.06;47.85;101781.69;5064814;28;20069;-64
2022/06/15 09:12:53;;;;;;;9.32;2.40;;;;;;;20.12;47.67;101785.28;5059144;28;20048;-64
2022/06/15 09:15:32;;;;;;;4.40;1.70;;;;;;;20.16;47.88;101791.84;5055666;28;20491;-64
2022/06/15 09:18:05;;;;;;;6.07;2.33;;;;;;;20.18;47.69;101786.97;5065168;28;20049;-64
2022/06/15 09:20:39;;;;;;;8.32;2.67;;;;;;;20.20;47.74;101786.69;4708448;28;10000451;-64
2022/06/15 09:23:10;;;;;;;7.30;1.92;;;;;;;20.22;47.41;101789.97;5057784;28;20060;-64
2022/06/15 09:25:46;;;;;;;3.53;1.77;;;;;;;20.24;47.49;101785.09;5056084;28;20048;-64
2022/06/15 09:28:25;;;;;;;6.45;2.33;;;;;;;20.25;47.35;101784.81;5064641;28;20044;-65
2022/06/15 09:30:57;;;;;;;5.10;1.70;;;;;;;20.27;47.53;101785.38;5062839;28;20056;-64
2022/06/15 09:33:32;;;;;;;9.15;2.03;;;;;;;20.27;47.31;101770.91;5063339;28;20144;-64
2022/06/15 09:36:07;;;;;;;4.72;2.00;;;;;;;20.30;47.25;101779.38;5099656;28;20058;-64
2022/06/15 09:38:35;;;;;;;7.95;2.35;;;;;;;20.35;47.17;101781.31;5102584;28;20051;-64
2022/06/15 09:41:10;;;;;;;4.18;1.70;;;;;;;20.34;47.18;101758.66;5103485;28;20055;-64
2022/06/15 09:43:53;;;;;;;7.40;2.20;;;;;;;20.43;47.15;101770.75;5100974;28;20044;-64
2022/06/15 09:46:29;;;;;;;5.93;2.05;;;;;;;20.44;46.88;101775.13;5104608;28;20044;-63
2022/06/15 09:49:08;;;;;;;4.85;1.90;;;;;;;20.47;46.66;101765.59;5104552;28;20056;-63
2022/06/15 09:51:48;;;;;;;6.85;2.20;;;;;;;20.49;46.53;101777.06;5099514;28;20059;-63
2022/06/15 09:54:23;;;;;;;10.88;2.25;;;;;;;20.48;46.30;101764.50;5097888;28;20101;-62
2022/06/15 09:56:52;;;;;;;8.97;2.43;;;;;;;20.55;46.49;101769.72;5104165;28;20052;-62
2022/06/15 09:59:22;;;;;;;6.63;2.17;;;;;;;20.60;46.57;101772.47;5098539;28;20056;-63
2022/06/15 10:01:50;;;;;;;7.93;2.58;;;;;;;20.66;46.58;101768.69;5104009;28;20142;-63
2022/06/15 10:04:21;;;;;;;6.78;1.60;;;;;;;20.70;46.40;101776.06;5104020;28;20064;-62
2022/06/15 10:07:13;;;;;;;8.18;2.33;;;;;;;20.75;46.23;101767.09;5100085;28;20151;-62
2022/06/15 10:09:51;;;;;;;5.75;2.10;;;;;;;20.76;45.98;101775.00;5101214;28;20144;-62
2022/06/15 10:15:27;;;;;;;6.25;2.13;;;;;;;20.78;46.33;101772.84;5090484;28;20546;-63
2022/06/15 10:17:58;;;;;;;8.05;2.10;;;;;;;20.85;46.28;101779.94;5104085;28;20051;-63
2022/06/15 10:20:31;;;;;;;4.85;2.10;;;;;;;20.88;45.97;101780.22;5097789;28;20045;-63
2022/06/15 10:23:02;;;;;;;5.20;2.25;;;;;;;20.90;45.89;101777.22;5101276;28;20060;-62
2022/06/15 10:25:36;;;;;;;6.78;2.40;;;;;;;20.88;45.42;101774.75;5103475;28;20070;-63
2022/06/15 10:28:15;;;;;;;4.38;2.10;;;;;;;20.90;45.78;101769.84;5094747;28;20062;-63
2022/06/15 10:30:56;;;;;;;6.25;1.90;;;;;;;20.93;45.84;101769.28;5102589;28;20048;-63
2022/06/15 10:33:25;;;;;;;5.53;2.10;;;;;;;20.98;45.82;101765.75;5099140;28;20468;-63
2022/06/15 10:35:57;;;;;;;10.20;2.63;;;;;;;21.03;44.49;101766.59;5104740;28;20072;-65
2022/06/15 10:38:27;;;;;;;5.97;1.88;;;;;;;21.09;45.70;101768.25;5103794;28;20044;-60
2022/06/15 10:41:45;;;;;;;7.72;2.10;;;;;;;21.15;45.76;101769.09;5105753;28;20074;-60
2022/06/15 10:43:48;;;;;;;9.50;1.98;;;;;;;21.21;45.94;101773.47;5099399;28;20048;-61
2022/06/15 10:46:20;;;;;;;5.20;2.00;;;;;;;21.27;46.01;101763.41;5102242;28;20044;-60
2022/06/15 10:48:52;;;;;;;7.75;2.08;;;;;;;21.32;46.17;101760.66;5097994;28;20052;-61
2022/06/15 10:51:31;;;;;;;7.70;2.45;;;;;;;21.42;46.46;101766.16;5103124;28;20105;-61
2022/06/15 10:54:21;;;;;;;5.78;1.80;;;;;;;21.50;46.47;101760.16;5100699;28;20197;-61
2022/06/15 11:02:34;;;;;;;6.40;1.98;;;;;;;21.70;46.21;101746.47;5102728;28;20055;-61
2022/06/15 11:05:12;;;;;;;6.07;1.90;;;;;;;21.80;46.72;101742.09;5101356;28;20512;-61
2022/06/15 11:07:43;;;;;;;5.15;1.50;;;;;;;21.85;46.19;101737.44;5101337;28;20051;-62
2022/06/15 11:10:20;;;;;;;6.70;3.03;;;;;;;21.90;46.03;101739.34;5093661;28;20041;-61
2022/06/15 11:12:51;;;;;;;4.72;1.77;;;;;;;21.93;46.09;101725.91;5098965;28;20056;-61
2022/06/15 11:18:01;;;;;;;4.13;1.73;;;;;;;22.04;46.64;101726.75;5100676;28;20178;-61
2022/06/15 11:18:26;;;;;;;5.20;1.88;;;;;;;22.15;46.39;101722.88;5102324;28;20063;-62
2022/06/15 11:21:02;;;;;;;5.32;1.70;;;;;;;22.18;45.47;101727.00;5093518;28;20048;-62
2022/06/15 11:23:41;;;;;;;3.65;2.03;;;;;;;22.15;45.16;101728.38;5101059;28;20048;-61
2022/06/15 11:29:09;;;;;;;6.38;1.80;;;;;;;22.19;45.49;101734.09;5104457;28;20036;-61
2022/06/15 11:32:03;;;;;;;12.90;2.90;;;;;;;22.23;45.49;101735.19;5102766;28;20040;-62
2022/06/15 11:34:37;;;;;;;2.97;1.58;;;;;;;22.28;45.84;101749.69;5099942;28;20505;-62
2022/06/15 11:37:11;;;;;;;5.43;1.90;;;;;;;22.32;45.31;101748.03;5103489;28;20048;-62
2022/06/15 11:39:44;;;;;;;6.78;2.03;;;;;;;22.37;45.46;101738.97;5101755;28;20044;-62
2022/06/15 11:42:15;;;;;;;8.02;3.05;;;;;;;22.34;45.13;101734.06;5094065;28;20422;-61
2022/06/15 11:44:45;;;;;;;7.40;2.95;;;;;;;22.44;45.42;101745.00;5095707;28;20052;-62
2022/06/15 11:47:27;;;;;;;5.93;2.08;;;;;;;22.53;45.75;101746.06;5097329;28;20074;-61
2022/06/15 11:50:07;;;;;;;4.57;1.95;;;;;;;22.57;44.89;101744.34;5101600;28;20039;-64
2022/06/15 11:52:49;;;;;;;10.10;2.70;;;;;;;22.60;44.95;101735.56;5099421;28;20135;-64
2022/06/15 11:55:26;;;;;;;4.75;2.00;;;;;;;22.63;44.33;101737.75;5103590;28;20075;-61
2022/06/15 11:58:21;;;;;;;6.43;2.08;;;;;;;22.66;44.13;101737.19;5083500;28;20045;-63
2022/06/15 12:01:00;;;;;;;8.98;2.38;;;;;;;22.70;44.55;101731.97;5090095;28;20401;-62